Date,TemperatureHighF,TemperatureAvgF,TemperatureLowF,DewpointHighF,DewpointAvgF,DewpointLowF,HumidityHigh,HumidityAvg,HumidityLow,PressureMaxIn,PressureMinIn,WindSpeedMaxMPH,WindSpeedAvgMPH,GustSpeedMaxMPH,PrecipitationSumIn
2013-2-1,64,48,33,22,19,16,50,33,20,30.28,30.13,5,0,6,0.00
2013-2-2,68,53,37,24,19,15,41,28,17,30.32,30.19,5,0,15,0.00
2013-2-3,64,54,43,32,21,15,42,29,20,30.22,29.89,3,0,7,0.00
2013-2-4,67,57,50,36,33,29,50,40,31,29.98,29.85,7,1,10,0.00
2013-2-5,69,54,41,34,30,26,65,42,26,30.00,29.85,5,0,11,0.00
2013-2-6,69,56,44,34,30,26,56,39,22,29.92,29.79,11,1,17,0.00
2013-2-7,66,56,44,34,29,21,59,37,23,30.02,29.90,3,1,9,0.00
2013-2-8,70,56,45,31,28,23,50,35,18,30.03,29.74,9,3,16,0.00
2013-2-9,65,52,42,29,21,15,42,31,16,29.87,29.61,23,4,27,0.00
2013-2-10,56,45,34,20,16,12,52,33,19,29.99,29.88,7,1,13,0.00
2013-2-11,62,48,33,30,15,10,57,28,18,30.00,29.83,9,1,13,0.00
2013-2-12,54,43,35,34,20,8,80,45,17,30.15,29.93,7,1,21,0.02
2013-2-13,56,43,28,17,13,8,46,30,19,30.21,30.05,10,1,14,0.00
2013-2-14,63,47,31,21,16,9,42,29,19,30.15,29.97,6,1,13,0.00
2013-2-15,58,47,38,29,24,14,62,42,29,30.34,30.13,7,1,10,0.00
2013-2-16,62,48,33,24,19,11,60,35,17,30.43,30.13,5,0,7,0.00
2013-2-17,70,53,34,19,14,10,39,23,12,30.13,29.76,16,2,21,0.00
2013-2-18,66,57,46,18,12,8,26,18,12,29.98,29.82,7,1,20,0.00
2013-2-19,58,50,41,46,27,7,91,50,18,29.95,29.77,12,2,17,0.29
2013-2-20,63,50,38,44,33,24,87,59,24,29.77,29.49,21,3,33,0.00
2013-2-21,52,41,32,27,24,21,73,52,32,29.96,29.74,22,5,25,0.00
2013-2-22,56,46,34,26,24,22,70,46,28,30.07,29.94,13,2,21,0.00
2013-2-23,59,48,34,24,21,15,54,35,25,30.07,29.75,8,1,15,0.00
2013-2-24,62,47,36,25,20,10,50,35,18,29.86,29.52,26,4,36,0.00
2013-2-25,55,42,31,18,14,11,47,33,21,30.11,29.88,8,1,17,0.00
2013-2-26,66,50,38,17,11,4,35,22,10,29.99,29.77,18,3,25,0.00
2013-2-27,55,45,32,15,8,2,34,23,15,30.24,30.00,9,1,15,0.00
2013-2-28,60,46,34,19,15,11,49,30,15,30.32,30.21,3,0,10,0.00